sensor_id;sensor_type;location;lat;lon;timestamp;pressure;altitude;pressure_sealevel;temperature
64904;BMP280;51401;48.882;12.598;2023-03-04T00:02:09;92996.88;;;1.41
64904;BMP280;51401;48.882;12.598;2023-03-04T00:04:34;92996.75;;;1.36
64904;BMP280;51401;48.882;12.598;2023-03-04T00:06:59;93026.91;;;1.28
64904;BMP280;51401;48.882;12.598;2023-03-04T00:09:25;93007.63;;;1.27
64904;BMP280;51401;48.882;12.598;2023-03-04T00:11:50;92976.75;;;1.25
64904;BMP280;51401;48.882;12.598;2023-03-04T00:14:15;92996.25;;;1.19
64904;BMP280;51401;48.882;12.598;2023-03-04T00:16:41;92941.63;;;1.20
64904;BMP280;51401;48.882;12.598;2023-03-04T00:19:06;92907.94;;;1.16
64904;BMP280;51401;48.882;12.598;2023-03-04T00:21:31;92879.19;;;1.16
64904;BMP280;51401;48.882;12.598;2023-03-04T00:23:57;92891.34;;;1.12
64904;BMP280;51401;48.882;12.598;2023-03-04T00:26:22;92906.19;;;1.05
64904;BMP280;51401;48.882;12.598;2023-03-04T00:28:47;92925.25;;;1.00
64904;BMP280;51401;48.882;12.598;2023-03-04T00:31:13;92943.47;;;0.90
64904;BMP280;51401;48.882;12.598;2023-03-04T00:33:38;92915.53;;;0.99
64904;BMP280;51401;48.882;12.598;2023-03-04T00:36:04;92926.59;;;1.05
64904;BMP280;51401;48.882;12.598;2023-03-04T00:38:30;92981.47;;;1.06
64904;BMP280;51401;48.882;12.598;2023-03-04T00:40:55;93011.94;;;1.09
64904;BMP280;51401;48.882;12.598;2023-03-04T00:43:20;93040.94;;;1.03
64904;BMP280;51401;48.882;12.598;2023-03-04T00:45:45;93048.84;;;1.05
64904;BMP280;51401;48.882;12.598;2023-03-04T00:48:12;93109.13;;;0.99
64904;BMP280;51401;48.882;12.598;2023-03-04T00:50:37;93099.84;;;0.92
64904;BMP280;51401;48.882;12.598;2023-03-04T00:53:03;93093.34;;;0.91
64904;BMP280;51401;48.882;12.598;2023-03-04T00:55:28;93095.06;;;0.94
64904;BMP280;51401;48.882;12.598;2023-03-04T00:57:53;93057.88;;;0.97
64904;BMP280;51401;48.882;12.598;2023-03-04T01:00:19;93108.22;;;0.93
64904;BMP280;51401;48.882;12.598;2023-03-04T01:02:44;93148.97;;;0.93
64904;BMP280;51401;48.882;12.598;2023-03-04T01:05:10;93181.78;;;0.91
64904;BMP280;51401;48.882;12.598;2023-03-04T01:07:36;93218.47;;;0.93
64904;BMP280;51401;48.882;12.598;2023-03-04T01:10:01;93260.47;;;0.89
64904;BMP280;51401;48.882;12.598;2023-03-04T01:12:26;93272.88;;;0.87
64904;BMP280;51401;48.882;12.598;2023-03-04T01:14:52;93296.31;;;0.82
64904;BMP280;51401;48.882;12.598;2023-03-04T01:17:18;93320.16;;;0.75
64904;BMP280;51401;48.882;12.598;2023-03-04T01:19:43;93325.97;;;0.76
64904;BMP280;51401;48.882;12.598;2023-03-04T01:22:09;93349.41;;;0.71
64904;BMP280;51401;48.882;12.598;2023-03-04T01:24:36;93316.59;;;0.73
64904;BMP280;51401;48.882;12.598;2023-03-04T01:27:01;93326.28;;;0.66
64904;BMP280;51401;48.882;12.598;2023-03-04T01:29:27;93323.91;;;0.59
64904;BMP280;51401;48.882;12.598;2023-03-04T01:31:52;93340.63;;;0.47
64904;BMP280;51401;48.882;12.598;2023-03-04T01:34:17;93332.06;;;0.41
64904;BMP280;51401;48.882;12.598;2023-03-04T01:36:43;93297.31;;;0.35
64904;BMP280;51401;48.882;12.598;2023-03-04T01:39:08;93217.84;;;0.31
64904;BMP280;51401;48.882;12.598;2023-03-04T01:41:33;93178.78;;;0.25
64904;BMP280;51401;48.882;12.598;2023-03-04T01:43:59;93141.03;;;0.24
64904;BMP280;51401;48.882;12.598;2023-03-04T01:46:26;93088.91;;;0.28
64904;BMP280;51401;48.882;12.598;2023-03-04T01:48:51;93049.19;;;0.31
64904;BMP280;51401;48.882;12.598;2023-03-04T01:51:19;93063.97;;;0.23
64904;BMP280;51401;48.882;12.598;2023-03-04T01:53:46;93071.19;;;0.25
64904;BMP280;51401;48.882;12.598;2023-03-04T01:56:18;93074.16;;;0.23
64904;BMP280;51401;48.882;12.598;2023-03-04T01:58:43;93079.13;;;0.27
64904;BMP280;51401;48.882;12.598;2023-03-04T02:01:11;93098.69;;;0.30
64904;BMP280;51401;48.882;12.598;2023-03-04T02:03:38;93085.00;;;0.36
64904;BMP280;51401;48.882;12.598;2023-03-04T02:06:04;93129.56;;;0.40
64904;BMP280;51401;48.882;12.598;2023-03-04T02:08:29;93169.06;;;0.33
64904;BMP280;51401;48.882;12.598;2023-03-04T02:10:55;93199.97;;;0.22
64904;BMP280;51401;48.882;12.598;2023-03-04T02:13:20;93206.84;;;0.09
64904;BMP280;51401;48.882;12.598;2023-03-04T02:15:47;93181.13;;;0.07
64904;BMP280;51401;48.882;12.598;2023-03-04T02:23:32;93145.19;;;0.05
64904;BMP280;51401;48.882;12.598;2023-03-04T02:28:36;93090.34;;;0.17
64904;BMP280;51401;48.882;12.598;2023-03-04T02:31:02;93152.94;;;0.14
64904;BMP280;51401;48.882;12.598;2023-03-04T02:33:27;93186.50;;;0.09
64904;BMP280;51401;48.882;12.598;2023-03-04T02:35:53;93214.09;;;0.11
64904;BMP280;51401;48.882;12.598;2023-03-04T02:38:18;93230.06;;;-0.01
64904;BMP280;51401;48.882;12.598;2023-03-04T02:40:46;93206.84;;;-0.03
64904;BMP280;51401;48.882;12.598;2023-03-04T02:43:12;93193.00;;;-0.14
64904;BMP280;51401;48.882;12.598;2023-03-04T02:45:45;93148.94;;;-0.24
64904;BMP280;51401;48.882;12.598;2023-03-04T02:48:11;93094.16;;;-0.25
64904;BMP280;51401;48.882;12.598;2023-03-04T02:50:43;93069.44;;;-0.37
64904;BMP280;51401;48.882;12.598;2023-03-04T02:53:09;93015.75;;;-0.38
64904;BMP280;51401;48.882;12.598;2023-03-04T02:55:35;92980.38;;;-0.45
64904;BMP280;51401;48.882;12.598;2023-03-04T02:58:00;92906.50;;;-0.51
64904;BMP280;51401;48.882;12.598;2023-03-04T03:00:26;92865.25;;;-0.55
64904;BMP280;51401;48.882;12.598;2023-03-04T03:02:52;92823.28;;;-0.59
64904;BMP280;51401;48.882;12.598;2023-03-04T03:05:18;92768.28;;;-0.53
64904;BMP280;51401;48.882;12.598;2023-03-04T03:07:43;92731.00;;;-0.56
64904;BMP280;51401;48.882;12.598;2023-03-04T03:10:09;92699.22;;;-0.61
64904;BMP280;51401;48.882;12.598;2023-03-04T03:12:34;92678.31;;;-0.65
64904;BMP280;51401;48.882;12.598;2023-03-04T03:15:00;92617.22;;;-0.61
64904;BMP280;51401;48.882;12.598;2023-03-04T03:17:25;92567.53;;;-0.62
64904;BMP280;51401;48.882;12.598;2023-03-04T03:19:50;92497.28;;;-0.56
64904;BMP280;51401;48.882;12.598;2023-03-04T03:22:16;92481.63;;;-0.55
64904;BMP280;51401;48.882;12.598;2023-03-04T03:24:41;92454.94;;;-0.50
64904;BMP280;51401;48.882;12.598;2023-03-04T03:27:06;92479.22;;;-0.49
64904;BMP280;51401;48.882;12.598;2023-03-04T03:29:32;92517.59;;;-0.56
64904;BMP280;51401;48.882;12.598;2023-03-04T03:31:57;92523.66;;;-0.63
64904;BMP280;51401;48.882;12.598;2023-03-04T03:34:23;92535.34;;;-0.65
64904;BMP280;51401;48.882;12.598;2023-03-04T03:36:48;92536.44;;;-0.75
64904;BMP280;51401;48.882;12.598;2023-03-04T03:39:13;92535.56;;;-0.81
64904;BMP280;51401;48.882;12.598;2023-03-04T03:41:40;92469.28;;;-0.74
64904;BMP280;51401;48.882;12.598;2023-03-04T03:44:05;92442.06;;;-0.74
64904;BMP280;51401;48.882;12.598;2023-03-04T03:46:31;92442.63;;;-0.78
64904;BMP280;51401;48.882;12.598;2023-03-04T03:48:56;92400.44;;;-0.67
64904;BMP280;51401;48.882;12.598;2023-03-04T03:51:21;92365.59;;;-0.67
64904;BMP280;51401;48.882;12.598;2023-03-04T03:53:47;92326.50;;;-0.51
64904;BMP280;51401;48.882;12.598;2023-03-04T03:56:12;92368.41;;;-0.56
64904;BMP280;51401;48.882;12.598;2023-03-04T03:58:37;92413.72;;;-0.54
64904;BMP280;51401;48.882;12.598;2023-03-04T04:01:03;92465.38;;;-0.57
64904;BMP280;51401;48.882;12.598;2023-03-04T04:03:28;92457.91;;;-0.52
64904;BMP280;51401;48.882;12.598;2023-03-04T04:05:53;92497.84;;;-0.52
64904;BMP280;51401;48.882;12.598;2023-03-04T04:08:19;92514.50;;;-0.51
64904;BMP280;51401;48.882;12.598;2023-03-04T04:10:44;92558.13;;;-0.53
64904;BMP280;51401;48.882;12.598;2023-03-04T04:13:10;92538.66;;;-0.47
64904;BMP280;51401;48.882;12.598;2023-03-04T04:15:35;92532.28;;;-0.51
64904;BMP280;51401;48.882;12.598;2023-03-04T04:18:03;92563.78;;;-0.49
64904;BMP280;51401;48.882;12.598;2023-03-04T04:20:29;92550.09;;;-0.42
64904;BMP280;51401;48.882;12.598;2023-03-04T04:22:54;92610.47;;;-0.55
64904;BMP280;51401;48.882;12.598;2023-03-04T04:25:20;92611.88;;;-0.54
64904;BMP280;51401;48.882;12.598;2023-03-04T04:27:45;92596.66;;;-0.54
64904;BMP280;51401;48.882;12.598;2023-03-04T04:30:10;92555.72;;;-0.47
64904;BMP280;51401;48.882;12.598;2023-03-04T04:32:36;92594.38;;;-0.52
64904;BMP280;51401;48.882;12.598;2023-03-04T04:35:01;92604.84;;;-0.50
64904;BMP280;51401;48.882;12.598;2023-03-04T04:37:27;92596.38;;;-0.47
64904;BMP280;51401;48.882;12.598;2023-03-04T04:39:52;92572.50;;;-0.50
64904;BMP280;51401;48.882;12.598;2023-03-04T04:42:19;92629.66;;;-0.54
64904;BMP280;51401;48.882;12.598;2023-03-04T04:44:45;92620.31;;;-0.57
64904;BMP280;51401;48.882;12.598;2023-03-04T04:47:10;92666.19;;;-0.61
64904;BMP280;51401;48.882;12.598;2023-03-04T04:49:35;92649.22;;;-0.64
64904;BMP280;51401;48.882;12.598;2023-03-04T04:52:01;92605.66;;;-0.62
64904;BMP280;51401;48.882;12.598;2023-03-04T04:54:26;92549.94;;;-0.57
64904;BMP280;51401;48.882;12.598;2023-03-04T04:56:52;92580.25;;;-0.62
64904;BMP280;51401;48.882;12.598;2023-03-04T04:59:17;92575.44;;;-0.60
64904;BMP280;51401;48.882;12.598;2023-03-04T05:01:43;92609.06;;;-0.56
64904;BMP280;51401;48.882;12.598;2023-03-04T05:04:08;92589.41;;;-0.65
64904;BMP280;51401;48.882;12.598;2023-03-04T05:06:33;92597.25;;;-0.72
64904;BMP280;51401;48.882;12.598;2023-03-04T05:08:59;92558.94;;;-0.65
64904;BMP280;51401;48.882;12.598;2023-03-04T05:11:24;92527.88;;;-0.60
64904;BMP280;51401;48.882;12.598;2023-03-04T05:13:49;92558.94;;;-0.65
64904;BMP280;51401;48.882;12.598;2023-03-04T05:16:16;92609.56;;;-0.70
64904;BMP280;51401;48.882;12.598;2023-03-04T05:18:42;92585.72;;;-0.73
64904;BMP280;51401;48.882;12.598;2023-03-04T05:21:07;92544.91;;;-0.69
64904;BMP280;51401;48.882;12.598;2023-03-04T05:23:35;92567.78;;;-0.69
64904;BMP280;51401;48.882;12.598;2023-03-04T05:26:02;92538.16;;;-0.72
64904;BMP280;51401;48.882;12.598;2023-03-04T05:28:27;92542.66;;;-0.76
64904;BMP280;51401;48.882;12.598;2023-03-04T05:30:53;92532.50;;;-0.67
64904;BMP280;51401;48.882;12.598;2023-03-04T05:33:18;92594.84;;;-0.75
64904;BMP280;51401;48.882;12.598;2023-03-04T05:35:45;92533.47;;;-0.74
64904;BMP280;51401;48.882;12.598;2023-03-04T05:38:14;92540.22;;;-0.79
64904;BMP280;51401;48.882;12.598;2023-03-04T05:40:40;92512.88;;;-0.75
64904;BMP280;51401;48.882;12.598;2023-03-04T05:43:05;92529.91;;;-0.85
64904;BMP280;51401;48.882;12.598;2023-03-04T05:45:31;92492.53;;;-0.84
64904;BMP280;51401;48.882;12.598;2023-03-04T05:47:57;92441.34;;;-0.74
64904;BMP280;51401;48.882;12.598;2023-03-04T05:50:23;92435.13;;;-0.82
64904;BMP280;51401;48.882;12.598;2023-03-04T05:52:49;92391.97;;;-0.73
64904;BMP280;51401;48.882;12.598;2023-03-04T05:55:15;92405.97;;;-0.69
64904;BMP280;51401;48.882;12.598;2023-03-04T05:57:41;92437.28;;;-0.63
64904;BMP280;51401;48.882;12.598;2023-03-04T06:00:08;92463.66;;;-0.69
64904;BMP280;51401;48.882;12.598;2023-03-04T06:02:34;92430.34;;;-0.71
64904;BMP280;51401;48.882;12.598;2023-03-04T06:05:00;92388.31;;;-0.63
64904;BMP280;51401;48.882;12.598;2023-03-04T06:07:25;92404.69;;;-0.64
64904;BMP280;51401;48.882;12.598;2023-03-04T06:09:50;92410.06;;;-0.62
64904;BMP280;51401;48.882;12.598;2023-03-04T06:12:16;92365.19;;;-0.56
64904;BMP280;51401;48.882;12.598;2023-03-04T06:14:41;92335.81;;;-0.48
64904;BMP280;51401;48.882;12.598;2023-03-04T06:17:06;92382.00;;;-0.41
64904;BMP280;51401;48.882;12.598;2023-03-04T06:19:31;92395.53;;;-0.35
64904;BMP280;51401;48.882;12.598;2023-03-04T06:21:58;92474.06;;;-0.28
64904;BMP280;51401;48.882;12.598;2023-03-04T06:24:23;92515.03;;;-0.17
64904;BMP280;51401;48.882;12.598;2023-03-04T06:26:48;92564.59;;;-0.13
64904;BMP280;51401;48.882;12.598;2023-03-04T06:29:14;92610.09;;;-0.06
64904;BMP280;51401;48.882;12.598;2023-03-04T06:31:39;92606.75;;;0.06
64904;BMP280;51401;48.882;12.598;2023-03-04T06:34:07;92683.06;;;0.15
64904;BMP280;51401;48.882;12.598;2023-03-04T06:36:33;92697.22;;;0.34
64904;BMP280;51401;48.882;12.598;2023-03-04T06:39:02;92844.59;;;0.49
64904;BMP280;51401;48.882;12.598;2023-03-04T06:41:28;92969.06;;;0.56
64904;BMP280;51401;48.882;12.598;2023-03-04T06:43:53;93052.19;;;0.93
64904;BMP280;51401;48.882;12.598;2023-03-04T06:46:19;93215.69;;;1.00
64904;BMP280;51401;48.882;12.598;2023-03-04T06:48:44;93301.75;;;1.51
64904;BMP280;51401;48.882;12.598;2023-03-04T06:51:10;93574.41;;;1.45
64904;BMP280;51401;48.882;12.598;2023-03-04T06:53:36;93702.56;;;1.62
64904;BMP280;51401;48.882;12.598;2023-03-04T06:56:01;93912.50;;;1.59
64904;BMP280;51401;48.882;12.598;2023-03-04T06:58:27;94153.34;;;2.12
64904;BMP280;51401;48.882;12.598;2023-03-04T07:00:52;94250.97;;;2.19
64904;BMP280;51401;48.882;12.598;2023-03-04T07:03:17;94517.00;;;2.56
64904;BMP280;51401;48.882;12.598;2023-03-04T07:05:43;94662.00;;;2.52
64904;BMP280;51401;48.882;12.598;2023-03-04T07:08:08;94751.13;;;3.22
64904;BMP280;51401;48.882;12.598;2023-03-04T07:10:34;95014.66;;;2.56
64904;BMP280;51401;48.882;12.598;2023-03-04T07:12:59;95096.22;;;3.16
64904;BMP280;51401;48.882;12.598;2023-03-04T07:15:25;95080.03;;;2.53
64904;BMP280;51401;48.882;12.598;2023-03-04T07:17:50;95046.03;;;3.26
64904;BMP280;51401;48.882;12.598;2023-03-04T07:20:16;95092.72;;;3.37
64904;BMP280;51401;48.882;12.598;2023-03-04T07:22:42;95288.94;;;3.50
64904;BMP280;51401;48.882;12.598;2023-03-04T07:25:07;95363.75;;;3.68
64904;BMP280;51401;48.882;12.598;2023-03-04T07:27:33;95508.09;;;4.41
64904;BMP280;51401;48.882;12.598;2023-03-04T07:29:58;95703.56;;;3.91
64904;BMP280;51401;48.882;12.598;2023-03-04T07:32:24;95677.00;;;3.20
64904;BMP280;51401;48.882;12.598;2023-03-04T07:34:49;95698.16;;;3.51
64904;BMP280;51401;48.882;12.598;2023-03-04T07:37:15;95725.22;;;3.70
64904;BMP280;51401;48.882;12.598;2023-03-04T07:39:40;95796.91;;;3.87
64904;BMP280;51401;48.882;12.598;2023-03-04T07:42:05;95705.53;;;3.25
64904;BMP280;51401;48.882;12.598;2023-03-04T07:44:31;95700.38;;;3.43
64904;BMP280;51401;48.882;12.598;2023-03-04T07:46:56;95675.81;;;3.76
64904;BMP280;51401;48.882;12.598;2023-03-04T07:49:21;95696.28;;;3.80
64904;BMP280;51401;48.882;12.598;2023-03-04T07:51:46;95832.03;;;3.45
64904;BMP280;51401;48.882;12.598;2023-03-04T07:54:12;95738.97;;;4.20
64904;BMP280;51401;48.882;12.598;2023-03-04T07:56:37;95829.16;;;3.36
64904;BMP280;51401;48.882;12.598;2023-03-04T07:59:02;95826.94;;;3.73
64904;BMP280;51401;48.882;12.598;2023-03-04T08:01:30;95828.94;;;4.50
64904;BMP280;51401;48.882;12.598;2023-03-04T08:03:56;95922.41;;;3.63
64904;BMP280;51401;48.882;12.598;2023-03-04T08:06:22;95944.75;;;3.66
64904;BMP280;51401;48.882;12.598;2023-03-04T08:08:48;95868.97;;;4.17
64904;BMP280;51401;48.882;12.598;2023-03-04T08:11:16;96001.84;;;4.63
64904;BMP280;51401;48.882;12.598;2023-03-04T08:13:42;96149.19;;;4.41
64904;BMP280;51401;48.882;12.598;2023-03-04T08:16:11;96159.84;;;5.09
64904;BMP280;51401;48.882;12.598;2023-03-04T08:18:37;96322.69;;;5.21
64904;BMP280;51401;48.882;12.598;2023-03-04T08:21:07;96435.44;;;5.54
64904;BMP280;51401;48.882;12.598;2023-03-04T08:23:33;96539.53;;;5.20
64904;BMP280;51401;48.882;12.598;2023-03-04T08:25:58;96556.66;;;6.04
64904;BMP280;51401;48.882;12.598;2023-03-04T08:28:23;96776.31;;;5.89
64904;BMP280;51401;48.882;12.598;2023-03-04T08:30:53;96668.16;;;5.55
64904;BMP280;51401;48.882;12.598;2023-03-04T08:33:18;96739.31;;;5.44
64904;BMP280;51401;48.882;12.598;2023-03-04T08:35:43;96774.47;;;5.33
64904;BMP280;51401;48.882;12.598;2023-03-04T08:38:09;96847.09;;;5.30
64904;BMP280;51401;48.882;12.598;2023-03-04T08:40:34;96848.69;;;6.55
64904;BMP280;51401;48.882;12.598;2023-03-04T08:42:59;96993.03;;;6.86
64904;BMP280;51401;48.882;12.598;2023-03-04T08:45:24;97018.38;;;6.24
64904;BMP280;51401;48.882;12.598;2023-03-04T08:47:50;96956.94;;;6.19
64904;BMP280;51401;48.882;12.598;2023-03-04T08:50:15;96935.88;;;4.66
64904;BMP280;51401;48.882;12.598;2023-03-04T08:52:41;96824.09;;;4.43
64904;BMP280;51401;48.882;12.598;2023-03-04T08:55:06;96839.47;;;4.40
64904;BMP280;51401;48.882;12.598;2023-03-04T08:57:32;96808.38;;;4.16
64904;BMP280;51401;48.882;12.598;2023-03-04T08:59:57;96744.84;;;3.77
64904;BMP280;51401;48.882;12.598;2023-03-04T09:02:22;96770.50;;;4.64
64904;BMP280;51401;48.882;12.598;2023-03-04T09:04:47;96866.13;;;5.62
64904;BMP280;51401;48.882;12.598;2023-03-04T09:07:13;96893.53;;;4.28
64904;BMP280;51401;48.882;12.598;2023-03-04T09:09:39;96865.03;;;3.63
64904;BMP280;51401;48.882;12.598;2023-03-04T09:12:04;96774.00;;;3.69
64904;BMP280;51401;48.882;12.598;2023-03-04T09:14:30;96790.13;;;4.82
64904;BMP280;51401;48.882;12.598;2023-03-04T09:16:56;96870.09;;;5.17
64904;BMP280;51401;48.882;12.598;2023-03-04T09:19:21;96982.63;;;5.08
64904;BMP280;51401;48.882;12.598;2023-03-04T09:21:48;97066.25;;;5.96
64904;BMP280;51401;48.882;12.598;2023-03-04T09:24:13;97143.75;;;5.94
64904;BMP280;51401;48.882;12.598;2023-03-04T09:26:39;97113.38;;;5.74
64904;BMP280;51401;48.882;12.598;2023-03-04T09:29:04;97224.75;;;5.05
64904;BMP280;51401;48.882;12.598;2023-03-04T09:31:30;97189.19;;;6.16
64904;BMP280;51401;48.882;12.598;2023-03-04T09:33:57;97158.28;;;5.25
64904;BMP280;51401;48.882;12.598;2023-03-04T09:36:25;97024.94;;;4.66
64904;BMP280;51401;48.882;12.598;2023-03-04T09:38:50;96990.69;;;4.55
64904;BMP280;51401;48.882;12.598;2023-03-04T09:41:19;96764.47;;;3.21
64904;BMP280;51401;48.882;12.598;2023-03-04T09:43:46;96666.75;;;3.38
64904;BMP280;51401;48.882;12.598;2023-03-04T09:46:36;96664.94;;;3.16
64904;BMP280;51401;48.882;12.598;2023-03-04T09:49:02;96538.72;;;2.87
64904;BMP280;51401;48.882;12.598;2023-03-04T09:57:14;96433.03;;;3.12
64904;BMP280;51401;48.882;12.598;2023-03-04T10:02:28;96542.69;;;3.07
64904;BMP280;51401;48.882;12.598;2023-03-04T10:05:00;96511.56;;;3.05
64904;BMP280;51401;48.882;12.598;2023-03-04T10:07:35;96523.16;;;3.24
64904;BMP280;51401;48.882;12.598;2023-03-04T10:10:23;96589.53;;;3.40
64904;BMP280;51401;48.882;12.598;2023-03-04T10:12:52;96587.75;;;3.44
64904;BMP280;51401;48.882;12.598;2023-03-04T10:15:41;96661.41;;;3.24
64904;BMP280;51401;48.882;12.598;2023-03-04T10:18:23;96628.09;;;2.54
64904;BMP280;51401;48.882;12.598;2023-03-04T10:20:55;96622.78;;;2.85
64904;BMP280;51401;48.882;12.598;2023-03-04T10:23:24;96589.78;;;2.80
64904;BMP280;51401;48.882;12.598;2023-03-04T10:25:50;96702.03;;;3.04
64904;BMP280;51401;48.882;12.598;2023-03-04T10:28:28;96673.69;;;2.71
64904;BMP280;51401;48.882;12.598;2023-03-04T10:33:34;96674.09;;;3.43
64904;BMP280;51401;48.882;12.598;2023-03-04T10:36:04;96674.22;;;3.50
64904;BMP280;51401;48.882;12.598;2023-03-04T10:38:33;96631.16;;;3.08
64904;BMP280;51401;48.882;12.598;2023-03-04T10:40:59;96595.81;;;2.91
64904;BMP280;51401;48.882;12.598;2023-03-04T10:43:24;96598.91;;;2.55
64904;BMP280;51401;48.882;12.598;2023-03-04T10:45:55;96516.56;;;2.47
64904;BMP280;51401;48.882;12.598;2023-03-04T10:48:27;96592.09;;;3.11
64904;BMP280;51401;48.882;12.598;2023-03-04T10:50:53;96574.03;;;2.78
64904;BMP280;51401;48.882;12.598;2023-03-04T10:53:39;96577.50;;;3.15
64904;BMP280;51401;48.882;12.598;2023-03-04T10:56:40;96507.84;;;2.73
64904;BMP280;51401;48.882;12.598;2023-03-04T10:59:29;96432.84;;;2.44
64904;BMP280;51401;48.882;12.598;2023-03-04T11:01:55;96365.47;;;2.55
64904;BMP280;51401;48.882;12.598;2023-03-04T11:04:25;96351.31;;;2.64
64904;BMP280;51401;48.882;12.598;2023-03-04T11:06:51;96415.66;;;2.41
64904;BMP280;51401;48.882;12.598;2023-03-04T11:09:28;96338.03;;;2.52
64904;BMP280;51401;48.882;12.598;2023-03-04T11:11:57;96430.88;;;2.56
64904;BMP280;51401;48.882;12.598;2023-03-04T11:14:26;96479.59;;;2.66
64904;BMP280;51401;48.882;12.598;2023-03-04T11:17:00;96508.84;;;2.69
64904;BMP280;51401;48.882;12.598;2023-03-04T11:19:38;96476.44;;;2.50
64904;BMP280;51401;48.882;12.598;2023-03-04T11:22:04;96417.63;;;2.50
64904;BMP280;51401;48.882;12.598;2023-03-04T11:24:33;96321.38;;;2.36
64904;BMP280;51401;48.882;12.598;2023-03-04T11:27:05;96299.41;;;2.60
64904;BMP280;51401;48.882;12.598;2023-03-04T11:29:37;96301.31;;;2.38
64904;BMP280;51401;48.882;12.598;2023-03-04T11:32:21;96326.72;;;2.53
64904;BMP280;51401;48.882;12.598;2023-03-04T11:35:03;96262.44;;;1.71
64904;BMP280;51401;48.882;12.598;2023-03-04T11:37:35;96039.19;;;2.04
64904;BMP280;51401;48.882;12.598;2023-03-04T11:40:10;96032.00;;;2.13
64904;BMP280;51401;48.882;12.598;2023-03-04T11:42:51;96011.63;;;1.80
64904;BMP280;51401;48.882;12.598;2023-03-04T11:45:25;95996.63;;;2.15
64904;BMP280;51401;48.882;12.598;2023-03-04T11:48:01;96002.81;;;2.14
64904;BMP280;51401;48.882;12.598;2023-03-04T11:56:23;95887.06;;;2.10
64904;BMP280;51401;48.882;12.598;2023-03-04T12:04:36;95877.88;;;1.99
64904;BMP280;51401;48.882;12.598;2023-03-04T12:18:39;96007.19;;;2.60
64904;BMP280;51401;48.882;12.598;2023-03-04T12:26:48;95937.75;;;2.54
64904;BMP280;51401;48.882;12.598;2023-03-04T12:29:42;95945.06;;;2.52
64904;BMP280;51401;48.882;12.598;2023-03-04T12:32:22;95873.66;;;2.23
64904;BMP280;51401;48.882;12.598;2023-03-04T12:37:42;95848.16;;;2.30
64904;BMP280;51401;48.882;12.598;2023-03-04T12:40:25;95843.34;;;2.18
64904;BMP280;51401;48.882;12.598;2023-03-04T12:46:03;95825.63;;;2.53
64904;BMP280;51401;48.882;12.598;2023-03-04T12:48:35;95904.41;;;2.37
64904;BMP280;51401;48.882;12.598;2023-03-04T12:53:54;96043.25;;;2.48
64904;BMP280;51401;48.882;12.598;2023-03-04T12:58:55;96199.00;;;2.67
64904;BMP280;51401;48.882;12.598;2023-03-04T13:01:26;96221.97;;;2.60
64904;BMP280;51401;48.882;12.598;2023-03-04T13:06:41;96150.97;;;2.47
64904;BMP280;51401;48.882;12.598;2023-03-04T13:11:53;96182.25;;;2.69
64904;BMP280;51401;48.882;12.598;2023-03-04T13:16:46;96150.09;;;2.36
64904;BMP280;51401;48.882;12.598;2023-03-04T13:24:57;96037.66;;;2.36
64904;BMP280;51401;48.882;12.598;2023-03-04T13:43:38;96074.25;;;2.43
64904;BMP280;51401;48.882;12.598;2023-03-04T13:48:59;96158.00;;;2.24
64904;BMP280;51401;48.882;12.598;2023-03-04T13:51:32;96173.97;;;2.47
64904;BMP280;51401;48.882;12.598;2023-03-04T14:01:35;96215.00;;;2.96
64904;BMP280;51401;48.882;12.598;2023-03-04T14:04:10;96268.47;;;3.05
64904;BMP280;51401;48.882;12.598;2023-03-04T14:06:41;96261.91;;;2.71
64904;BMP280;51401;48.882;12.598;2023-03-04T14:09:15;96241.69;;;2.63
64904;BMP280;51401;48.882;12.598;2023-03-04T14:11:41;96193.00;;;2.85
64904;BMP280;51401;48.882;12.598;2023-03-04T14:14:28;96256.56;;;2.83
64904;BMP280;51401;48.882;12.598;2023-03-04T14:16:57;96327.09;;;2.55
64904;BMP280;51401;48.882;12.598;2023-03-04T14:21:48;96348.44;;;2.66
64904;BMP280;51401;48.882;12.598;2023-03-04T14:24:16;96333.44;;;2.97
64904;BMP280;51401;48.882;12.598;2023-03-04T14:26:42;96349.34;;;2.80
64904;BMP280;51401;48.882;12.598;2023-03-04T14:29:27;96353.03;;;2.53
64904;BMP280;51401;48.882;12.598;2023-03-04T14:31:54;96283.81;;;2.40
64904;BMP280;51401;48.882;12.598;2023-03-04T14:34:50;96255.53;;;2.58
64904;BMP280;51401;48.882;12.598;2023-03-04T14:37:28;96238.44;;;2.33
64904;BMP280;51401;48.882;12.598;2023-03-04T14:39:57;96170.78;;;2.56
64904;BMP280;51401;48.882;12.598;2023-03-04T14:42:28;96094.81;;;2.53
64904;BMP280;51401;48.882;12.598;2023-03-04T14:44:58;96135.84;;;2.71
64904;BMP280;51401;48.882;12.598;2023-03-04T14:47:37;96213.38;;;2.78
64904;BMP280;51401;48.882;12.598;2023-03-04T14:50:05;96210.00;;;2.67
64904;BMP280;51401;48.882;12.598;2023-03-04T14:52:40;96233.41;;;2.73
64904;BMP280;51401;48.882;12.598;2023-03-04T14:55:23;96206.69;;;2.67
64904;BMP280;51401;48.882;12.598;2023-03-04T14:57:50;96216.22;;;2.70
64904;BMP280;51401;48.882;12.598;2023-03-04T15:00:34;96183.47;;;2.46
64904;BMP280;51401;48.882;12.598;2023-03-04T15:03:02;96213.41;;;2.46
64904;BMP280;51401;48.882;12.598;2023-03-04T15:05:28;96257.47;;;2.36
64904;BMP280;51401;48.882;12.598;2023-03-04T15:07:59;96274.22;;;2.33
64904;BMP280;51401;48.882;12.598;2023-03-04T15:10:31;96251.19;;;2.30
64904;BMP280;51401;48.882;12.598;2023-03-04T15:12:58;96207.91;;;2.44
64904;BMP280;51401;48.882;12.598;2023-03-04T15:18:42;96228.50;;;2.54
64904;BMP280;51401;48.882;12.598;2023-03-04T15:20:59;96203.53;;;2.44
64904;BMP280;51401;48.882;12.598;2023-03-04T15:23:26;96195.34;;;2.32
64904;BMP280;51401;48.882;12.598;2023-03-04T15:25:53;96166.22;;;2.40
64904;BMP280;51401;48.882;12.598;2023-03-04T15:28:20;96156.09;;;2.47
64904;BMP280;51401;48.882;12.598;2023-03-04T15:30:45;96085.97;;;2.47
64904;BMP280;51401;48.882;12.598;2023-03-04T15:33:11;96070.53;;;2.37
64904;BMP280;51401;48.882;12.598;2023-03-04T15:35:37;96061.00;;;2.31
64904;BMP280;51401;48.882;12.598;2023-03-04T15:38:05;96087.31;;;2.35
64904;BMP280;51401;48.882;12.598;2023-03-04T15:40:36;96038.88;;;2.48
64904;BMP280;51401;48.882;12.598;2023-03-04T15:43:04;96100.31;;;2.55
64904;BMP280;51401;48.882;12.598;2023-03-04T15:45:32;96095.50;;;2.50
64904;BMP280;51401;48.882;12.598;2023-03-04T15:48:01;96048.66;;;2.40
64904;BMP280;51401;48.882;12.598;2023-03-04T15:50:32;95937.97;;;2.36
64904;BMP280;51401;48.882;12.598;2023-03-04T15:52:59;96019.09;;;2.42
64904;BMP280;51401;48.882;12.598;2023-03-04T15:55:27;96030.56;;;2.62